sensor_id;sensor_type;location;lat;lon;timestamp;pressure;altitude;pressure_sealevel;temperature;humidity
45991;BME280;31721;41.740;-88.000;2022-12-18T00:01:16;98545.51;;;-5.92;61.38
45991;BME280;31721;41.740;-88.000;2022-12-18T00:03:45;98551.52;;;-5.99;61.56
45991;BME280;31721;41.740;-88.000;2022-12-18T00:06:14;98553.52;;;-6.17;61.86
45991;BME280;31721;41.740;-88.000;2022-12-18T00:08:42;98555.48;;;-6.06;61.89
45991;BME280;31721;41.740;-88.000;2022-12-18T00:11:13;98549.80;;;-6.17;62.34
45991;BME280;31721;41.740;-88.000;2022-12-18T00:13:41;98551.14;;;-6.25;62.31
45991;BME280;31721;41.740;-88.000;2022-12-18T00:16:11;98560.67;;;-6.24;62.68
45991;BME280;31721;41.740;-88.000;2022-12-18T00:18:40;98560.82;;;-6.25;62.68
45991;BME280;31721;41.740;-88.000;2022-12-18T00:21:11;98567.21;;;-6.30;62.83
45991;BME280;31721;41.740;-88.000;2022-12-18T00:23:41;98574.07;;;-6.26;62.68
45991;BME280;31721;41.740;-88.000;2022-12-18T00:26:13;98578.21;;;-6.14;62.56
45991;BME280;31721;41.740;-88.000;2022-12-18T00:28:41;98578.42;;;-6.15;62.61
45991;BME280;31721;41.740;-88.000;2022-12-18T00:31:12;98574.78;;;-6.17;62.71
45991;BME280;31721;41.740;-88.000;2022-12-18T00:33:41;98576.67;;;-6.31;62.94
45991;BME280;31721;41.740;-88.000;2022-12-18T00:36:11;98579.30;;;-6.13;62.66
45991;BME280;31721;41.740;-88.000;2022-12-18T00:38:40;98574.30;;;-6.12;62.11
45991;BME280;31721;41.740;-88.000;2022-12-18T00:41:09;98580.46;;;-6.13;62.41
45991;BME280;31721;41.740;-88.000;2022-12-18T00:43:38;98579.82;;;-6.05;62.34
45991;BME280;31721;41.740;-88.000;2022-12-18T00:46:06;98583.15;;;-6.06;62.13
45991;BME280;31721;41.740;-88.000;2022-12-18T00:48:33;98579.01;;;-6.02;61.90
45991;BME280;31721;41.740;-88.000;2022-12-18T00:51:01;98583.35;;;-5.95;61.86
45991;BME280;31721;41.740;-88.000;2022-12-18T00:53:28;98586.74;;;-6.01;60.83
45991;BME280;31721;41.740;-88.000;2022-12-18T00:55:56;98593.89;;;-6.55;61.36
45991;BME280;31721;41.740;-88.000;2022-12-18T00:58:24;98593.17;;;-6.19;60.24
45991;BME280;31721;41.740;-88.000;2022-12-18T01:00:52;98589.80;;;-6.08;59.93
45991;BME280;31721;41.740;-88.000;2022-12-18T01:03:20;98583.94;;;-6.02;57.69
45991;BME280;31721;41.740;-88.000;2022-12-18T01:05:48;98602.59;;;-6.05;56.38
45991;BME280;31721;41.740;-88.000;2022-12-18T01:08:16;98597.15;;;-6.27;57.20
45991;BME280;31721;41.740;-88.000;2022-12-18T01:10:44;98593.38;;;-6.12;55.74
45991;BME280;31721;41.740;-88.000;2022-12-18T01:13:11;98604.32;;;-6.52;57.24
45991;BME280;31721;41.740;-88.000;2022-12-18T01:15:39;98610.78;;;-6.56;57.35
45991;BME280;31721;41.740;-88.000;2022-12-18T01:18:07;98604.75;;;-6.54;57.00
45991;BME280;31721;41.740;-88.000;2022-12-18T01:20:36;98611.18;;;-6.41;56.36
45991;BME280;31721;41.740;-88.000;2022-12-18T01:23:05;98610.97;;;-6.39;56.95
45991;BME280;31721;41.740;-88.000;2022-12-18T01:25:33;98613.11;;;-6.55;57.09
45991;BME280;31721;41.740;-88.000;2022-12-18T01:28:03;98614.16;;;-6.51;56.82
45991;BME280;31721;41.740;-88.000;2022-12-18T01:30:31;98620.07;;;-6.61;56.92
45991;BME280;31721;41.740;-88.000;2022-12-18T01:32:59;98614.52;;;-6.83;57.14
45991;BME280;31721;41.740;-88.000;2022-12-18T01:35:27;98621.72;;;-7.01;57.79
45991;BME280;31721;41.740;-88.000;2022-12-18T01:37:55;98626.37;;;-6.96;57.51
45991;BME280;31721;41.740;-88.000;2022-12-18T01:40:23;98625.89;;;-6.79;57.79
45991;BME280;31721;41.740;-88.000;2022-12-18T01:42:52;98626.18;;;-6.71;57.14
45991;BME280;31721;41.740;-88.000;2022-12-18T01:45:24;98633.15;;;-6.74;57.45
45991;BME280;31721;41.740;-88.000;2022-12-18T01:47:55;98635.96;;;-6.90;57.83
45991;BME280;31721;41.740;-88.000;2022-12-18T01:50:25;98635.15;;;-6.44;56.46
45991;BME280;31721;41.740;-88.000;2022-12-18T01:52:58;98640.11;;;-6.54;56.83
45991;BME280;31721;41.740;-88.000;2022-12-18T01:55:29;98647.65;;;-6.57;57.02
45991;BME280;31721;41.740;-88.000;2022-12-18T01:57:59;98650.22;;;-6.52;57.18
45991;BME280;31721;41.740;-88.000;2022-12-18T02:00:28;98650.87;;;-6.62;57.00
45991;BME280;31721;41.740;-88.000;2022-12-18T02:02:57;98659.49;;;-6.45;57.02
45991;BME280;31721;41.740;-88.000;2022-12-18T02:05:33;98656.29;;;-6.77;57.37
45991;BME280;31721;41.740;-88.000;2022-12-18T02:08:09;98646.63;;;-6.29;56.54
45991;BME280;31721;41.740;-88.000;2022-12-18T02:10:45;98655.66;;;-6.51;57.17
45991;BME280;31721;41.740;-88.000;2022-12-18T02:13:19;98656.87;;;-6.08;56.63
45991;BME280;31721;41.740;-88.000;2022-12-18T02:15:54;98657.55;;;-6.06;56.13
45991;BME280;31721;41.740;-88.000;2022-12-18T02:18:28;98656.63;;;-6.16;55.46
45991;BME280;31721;41.740;-88.000;2022-12-18T02:21:02;98661.91;;;-6.36;55.90
45991;BME280;31721;41.740;-88.000;2022-12-18T02:23:47;98664.12;;;-6.45;56.48
45991;BME280;31721;41.740;-88.000;2022-12-18T02:26:22;98662.82;;;-6.41;56.98
45991;BME280;31721;41.740;-88.000;2022-12-18T02:28:56;98661.72;;;-6.10;55.98
45991;BME280;31721;41.740;-88.000;2022-12-18T02:31:28;98659.87;;;-6.32;56.72
45991;BME280;31721;41.740;-88.000;2022-12-18T02:34:02;98660.84;;;-5.96;55.80
45991;BME280;31721;41.740;-88.000;2022-12-18T02:36:33;98657.84;;;-6.12;55.75
45991;BME280;31721;41.740;-88.000;2022-12-18T02:39:04;98666.30;;;-6.26;56.17
45991;BME280;31721;41.740;-88.000;2022-12-18T02:41:34;98663.78;;;-6.21;56.28
45991;BME280;31721;41.740;-88.000;2022-12-18T02:44:07;98665.11;;;-6.33;56.33
45991;BME280;31721;41.740;-88.000;2022-12-18T02:46:38;98664.94;;;-6.50;56.45
45991;BME280;31721;41.740;-88.000;2022-12-18T02:49:15;98661.25;;;-6.85;56.96
45991;BME280;31721;41.740;-88.000;2022-12-18T02:51:51;98665.61;;;-6.47;56.73
45991;BME280;31721;41.740;-88.000;2022-12-18T02:54:32;98664.43;;;-6.45;56.68
45991;BME280;31721;41.740;-88.000;2022-12-18T02:57:11;98669.00;;;-6.58;56.66
45991;BME280;31721;41.740;-88.000;2022-12-18T02:59:49;98664.67;;;-6.38;56.19
45991;BME280;31721;41.740;-88.000;2022-12-18T03:02:23;98670.03;;;-6.58;56.70
45991;BME280;31721;41.740;-88.000;2022-12-18T03:04:57;98672.15;;;-6.66;56.39
45991;BME280;31721;41.740;-88.000;2022-12-18T03:07:35;98668.31;;;-6.84;56.58
45991;BME280;31721;41.740;-88.000;2022-12-18T03:10:07;98671.06;;;-6.76;56.67
45991;BME280;31721;41.740;-88.000;2022-12-18T03:12:40;98668.63;;;-6.79;56.84
45991;BME280;31721;41.740;-88.000;2022-12-18T03:15:14;98672.05;;;-7.06;57.20
45991;BME280;31721;41.740;-88.000;2022-12-18T03:17:49;98672.13;;;-7.33;57.68
45991;BME280;31721;41.740;-88.000;2022-12-18T03:20:21;98677.90;;;-6.99;57.54
45991;BME280;31721;41.740;-88.000;2022-12-18T03:22:56;98678.56;;;-7.10;57.36
45991;BME280;31721;41.740;-88.000;2022-12-18T03:25:28;98675.92;;;-6.86;57.49
45991;BME280;31721;41.740;-88.000;2022-12-18T03:28:01;98675.25;;;-6.93;56.92
45991;BME280;31721;41.740;-88.000;2022-12-18T03:30:34;98681.26;;;-7.00;57.29
45991;BME280;31721;41.740;-88.000;2022-12-18T03:33:08;98681.69;;;-6.93;57.38
45991;BME280;31721;41.740;-88.000;2022-12-18T03:35:41;98681.49;;;-6.84;57.00
45991;BME280;31721;41.740;-88.000;2022-12-18T03:38:11;98683.02;;;-6.48;56.25
45991;BME280;31721;41.740;-88.000;2022-12-18T03:40:47;98682.66;;;-6.52;56.51
45991;BME280;31721;41.740;-88.000;2022-12-18T03:43:22;98683.15;;;-6.57;56.41
45991;BME280;31721;41.740;-88.000;2022-12-18T03:46:01;98687.90;;;-6.79;57.05
45991;BME280;31721;41.740;-88.000;2022-12-18T03:48:33;98685.97;;;-6.81;56.95
45991;BME280;31721;41.740;-88.000;2022-12-18T03:51:09;98684.34;;;-6.75;56.89
45991;BME280;31721;41.740;-88.000;2022-12-18T03:53:43;98687.92;;;-6.88;56.84
45991;BME280;31721;41.740;-88.000;2022-12-18T03:56:14;98695.74;;;-6.95;57.19
45991;BME280;31721;41.740;-88.000;2022-12-18T03:58:44;98700.01;;;-7.15;57.05
45991;BME280;31721;41.740;-88.000;2022-12-18T04:01:15;98700.46;;;-7.39;57.43
45991;BME280;31721;41.740;-88.000;2022-12-18T04:03:46;98693.45;;;-6.94;57.09
45991;BME280;31721;41.740;-88.000;2022-12-18T04:06:15;98696.66;;;-7.30;57.75
45991;BME280;31721;41.740;-88.000;2022-12-18T04:08:44;98702.27;;;-7.12;57.44
45991;BME280;31721;41.740;-88.000;2022-12-18T04:11:13;98704.11;;;-6.95;57.37
45991;BME280;31721;41.740;-88.000;2022-12-18T04:13:43;98711.29;;;-7.01;57.41
45991;BME280;31721;41.740;-88.000;2022-12-18T04:16:11;98706.34;;;-6.79;57.02
45991;BME280;31721;41.740;-88.000;2022-12-18T04:18:39;98715.18;;;-6.90;56.97
45991;BME280;31721;41.740;-88.000;2022-12-18T04:21:07;98716.04;;;-6.95;57.00
45991;BME280;31721;41.740;-88.000;2022-12-18T04:23:35;98720.12;;;-7.00;57.17
45991;BME280;31721;41.740;-88.000;2022-12-18T04:26:03;98719.51;;;-6.94;56.89
45991;BME280;31721;41.740;-88.000;2022-12-18T04:28:31;98724.51;;;-7.37;57.15
45991;BME280;31721;41.740;-88.000;2022-12-18T04:30:58;98728.18;;;-7.16;57.49
45991;BME280;31721;41.740;-88.000;2022-12-18T04:33:26;98730.63;;;-7.00;57.64
45991;BME280;31721;41.740;-88.000;2022-12-18T04:35:54;98728.61;;;-6.68;56.68
45991;BME280;31721;41.740;-88.000;2022-12-18T04:38:22;98733.67;;;-6.79;57.20
45991;BME280;31721;41.740;-88.000;2022-12-18T04:40:50;98731.78;;;-6.79;57.00
45991;BME280;31721;41.740;-88.000;2022-12-18T04:43:18;98737.29;;;-6.65;56.68
45991;BME280;31721;41.740;-88.000;2022-12-18T04:45:46;98732.68;;;-6.72;56.28
45991;BME280;31721;41.740;-88.000;2022-12-18T04:48:14;98737.86;;;-7.05;56.81
45991;BME280;31721;41.740;-88.000;2022-12-18T04:50:41;98736.39;;;-7.38;57.23
45991;BME280;31721;41.740;-88.000;2022-12-18T04:53:09;98732.22;;;-7.35;57.24
45991;BME280;31721;41.740;-88.000;2022-12-18T04:55:37;98735.03;;;-6.99;56.98
45991;BME280;31721;41.740;-88.000;2022-12-18T04:58:05;98734.79;;;-6.89;56.94
45991;BME280;31721;41.740;-88.000;2022-12-18T05:00:33;98737.54;;;-6.61;57.17
45991;BME280;31721;41.740;-88.000;2022-12-18T05:03:01;98735.75;;;-6.56;56.55
45991;BME280;31721;41.740;-88.000;2022-12-18T05:05:29;98736.31;;;-6.30;55.75
45991;BME280;31721;41.740;-88.000;2022-12-18T05:07:56;98745.31;;;-6.72;56.27
45991;BME280;31721;41.740;-88.000;2022-12-18T05:10:24;98753.34;;;-6.68;56.24
45991;BME280;31721;41.740;-88.000;2022-12-18T05:12:52;98752.70;;;-6.57;56.04
45991;BME280;31721;41.740;-88.000;2022-12-18T05:15:20;98754.44;;;-6.85;56.00
45991;BME280;31721;41.740;-88.000;2022-12-18T05:17:48;98755.92;;;-6.83;56.22
45991;BME280;31721;41.740;-88.000;2022-12-18T05:20:16;98760.72;;;-6.91;56.40
45991;BME280;31721;41.740;-88.000;2022-12-18T05:22:44;98754.47;;;-6.79;56.14
45991;BME280;31721;41.740;-88.000;2022-12-18T05:25:12;98752.41;;;-7.22;56.54
45991;BME280;31721;41.740;-88.000;2022-12-18T05:27:40;98754.08;;;-7.41;55.90
45991;BME280;31721;41.740;-88.000;2022-12-18T05:30:09;98758.50;;;-6.77;55.50
45991;BME280;31721;41.740;-88.000;2022-12-18T05:32:37;98751.47;;;-6.74;55.48
45991;BME280;31721;41.740;-88.000;2022-12-18T05:35:10;98754.88;;;-6.72;55.07
45991;BME280;31721;41.740;-88.000;2022-12-18T05:37:38;98764.39;;;-6.93;56.00
45991;BME280;31721;41.740;-88.000;2022-12-18T05:40:07;98764.65;;;-6.91;55.96
45991;BME280;31721;41.740;-88.000;2022-12-18T05:42:34;98764.43;;;-6.56;55.32
45991;BME280;31721;41.740;-88.000;2022-12-18T05:45:03;98756.95;;;-6.72;55.47
45991;BME280;31721;41.740;-88.000;2022-12-18T05:47:31;98765.69;;;-6.89;55.45
45991;BME280;31721;41.740;-88.000;2022-12-18T05:49:59;98759.95;;;-7.00;55.67
45991;BME280;31721;41.740;-88.000;2022-12-18T05:52:27;98764.86;;;-6.77;55.17
45991;BME280;31721;41.740;-88.000;2022-12-18T05:54:55;98767.37;;;-7.09;55.65
45991;BME280;31721;41.740;-88.000;2022-12-18T05:57:23;98765.79;;;-6.99;55.40
45991;BME280;31721;41.740;-88.000;2022-12-18T05:59:50;98763.04;;;-7.00;55.61
45991;BME280;31721;41.740;-88.000;2022-12-18T06:02:19;98764.56;;;-7.35;55.16
45991;BME280;31721;41.740;-88.000;2022-12-18T06:04:46;98768.67;;;-7.03;55.87
45991;BME280;31721;41.740;-88.000;2022-12-18T06:07:14;98770.96;;;-6.69;55.00
45991;BME280;31721;41.740;-88.000;2022-12-18T06:09:42;98773.97;;;-7.04;55.50
45991;BME280;31721;41.740;-88.000;2022-12-18T06:12:10;98778.02;;;-6.71;54.86
45991;BME280;31721;41.740;-88.000;2022-12-18T06:14:38;98781.93;;;-6.92;55.04
45991;BME280;31721;41.740;-88.000;2022-12-18T06:17:06;98787.41;;;-7.16;55.26
45991;BME280;31721;41.740;-88.000;2022-12-18T06:19:34;98786.35;;;-6.94;54.53
45991;BME280;31721;41.740;-88.000;2022-12-18T06:22:02;98788.61;;;-7.08;54.79
45991;BME280;31721;41.740;-88.000;2022-12-18T06:24:30;98789.80;;;-7.20;55.04
45991;BME280;31721;41.740;-88.000;2022-12-18T06:26:57;98790.40;;;-7.10;54.65
45991;BME280;31721;41.740;-88.000;2022-12-18T06:29:25;98786.81;;;-7.09;54.73
45991;BME280;31721;41.740;-88.000;2022-12-18T06:31:54;98786.83;;;-7.40;55.09
45991;BME280;31721;41.740;-88.000;2022-12-18T06:34:21;98790.44;;;-7.56;55.32
45991;BME280;31721;41.740;-88.000;2022-12-18T06:36:49;98788.48;;;-7.14;54.86
45991;BME280;31721;41.740;-88.000;2022-12-18T06:39:17;98790.98;;;-7.49;55.45
45991;BME280;31721;41.740;-88.000;2022-12-18T06:41:46;98791.19;;;-7.26;54.86
45991;BME280;31721;41.740;-88.000;2022-12-18T06:44:13;98791.65;;;-6.96;54.42
45991;BME280;31721;41.740;-88.000;2022-12-18T06:46:41;98797.58;;;-7.37;54.64
45991;BME280;31721;41.740;-88.000;2022-12-18T06:49:09;98809.23;;;-7.24;54.68
45991;BME280;31721;41.740;-88.000;2022-12-18T06:51:37;98809.12;;;-7.41;54.81
45991;BME280;31721;41.740;-88.000;2022-12-18T06:54:05;98811.98;;;-7.33;54.75
45991;BME280;31721;41.740;-88.000;2022-12-18T06:56:34;98816.69;;;-7.30;54.69
45991;BME280;31721;41.740;-88.000;2022-12-18T06:59:01;98817.76;;;-7.59;54.92
45991;BME280;31721;41.740;-88.000;2022-12-18T07:01:29;98816.69;;;-7.59;55.00
45991;BME280;31721;41.740;-88.000;2022-12-18T07:03:57;98812.73;;;-7.60;55.08
45991;BME280;31721;41.740;-88.000;2022-12-18T07:06:26;98817.41;;;-7.88;55.30
45991;BME280;31721;41.740;-88.000;2022-12-18T07:08:55;98826.60;;;-7.99;55.26
45991;BME280;31721;41.740;-88.000;2022-12-18T07:11:23;98836.94;;;-7.64;55.00
45991;BME280;31721;41.740;-88.000;2022-12-18T07:13:52;98838.22;;;-7.45;54.37
45991;BME280;31721;41.740;-88.000;2022-12-18T07:16:21;98836.54;;;-7.29;54.33
45991;BME280;31721;41.740;-88.000;2022-12-18T07:18:49;98837.24;;;-7.53;54.60
45991;BME280;31721;41.740;-88.000;2022-12-18T07:21:19;98837.77;;;-7.77;54.65
45991;BME280;31721;41.740;-88.000;2022-12-18T07:23:47;98844.22;;;-7.56;54.64
45991;BME280;31721;41.740;-88.000;2022-12-18T07:26:17;98843.02;;;-7.46;54.41
45991;BME280;31721;41.740;-88.000;2022-12-18T07:28:45;98845.42;;;-7.77;54.56
45991;BME280;31721;41.740;-88.000;2022-12-18T07:31:15;98848.19;;;-7.79;54.87
45991;BME280;31721;41.740;-88.000;2022-12-18T07:33:44;98850.60;;;-7.84;54.79
45991;BME280;31721;41.740;-88.000;2022-12-18T07:36:13;98850.65;;;-8.02;55.14
45991;BME280;31721;41.740;-88.000;2022-12-18T07:38:41;98860.16;;;-7.71;55.00
45991;BME280;31721;41.740;-88.000;2022-12-18T07:41:11;98864.67;;;-7.52;54.30
45991;BME280;31721;41.740;-88.000;2022-12-18T07:43:41;98869.23;;;-7.53;54.40
45991;BME280;31721;41.740;-88.000;2022-12-18T07:46:09;98869.18;;;-7.42;53.91
45991;BME280;31721;41.740;-88.000;2022-12-18T07:48:37;98874.31;;;-7.55;54.26
45991;BME280;31721;41.740;-88.000;2022-12-18T07:51:06;98876.48;;;-7.57;54.09
45991;BME280;31721;41.740;-88.000;2022-12-18T07:53:36;98883.97;;;-7.53;54.09
45991;BME280;31721;41.740;-88.000;2022-12-18T07:56:06;98887.00;;;-7.79;54.30
45991;BME280;31721;41.740;-88.000;2022-12-18T07:58:35;98891.37;;;-7.95;54.53
45991;BME280;31721;41.740;-88.000;2022-12-18T08:01:04;98892.62;;;-7.86;54.53
45991;BME280;31721;41.740;-88.000;2022-12-18T08:03:33;98893.54;;;-7.82;54.36
45991;BME280;31721;41.740;-88.000;2022-12-18T08:06:01;98897.02;;;-7.81;54.60
45991;BME280;31721;41.740;-88.000;2022-12-18T08:08:29;98897.89;;;-7.85;54.41
45991;BME280;31721;41.740;-88.000;2022-12-18T08:10:58;98903.99;;;-7.89;54.55
45991;BME280;31721;41.740;-88.000;2022-12-18T08:13:26;98910.41;;;-7.86;54.68
45991;BME280;31721;41.740;-88.000;2022-12-18T08:15:57;98917.46;;;-7.88;54.66
45991;BME280;31721;41.740;-88.000;2022-12-18T08:18:25;98923.87;;;-7.65;54.47
45991;BME280;31721;41.740;-88.000;2022-12-18T08:20:54;98926.35;;;-7.74;54.46
45991;BME280;31721;41.740;-88.000;2022-12-18T08:23:21;98924.92;;;-7.67;54.18
45991;BME280;31721;41.740;-88.000;2022-12-18T08:25:49;98930.63;;;-7.99;54.63
45991;BME280;31721;41.740;-88.000;2022-12-18T08:28:17;98932.37;;;-7.89;54.73
45991;BME280;31721;41.740;-88.000;2022-12-18T08:30:45;98937.15;;;-7.99;54.82
45991;BME280;31721;41.740;-88.000;2022-12-18T08:33:13;98938.48;;;-8.28;55.10
45991;BME280;31721;41.740;-88.000;2022-12-18T08:35:41;98938.58;;;-8.38;55.10
45991;BME280;31721;41.740;-88.000;2022-12-18T08:38:09;98941.48;;;-8.08;54.93
45991;BME280;31721;41.740;-88.000;2022-12-18T08:40:37;98936.55;;;-8.14;54.65
45991;BME280;31721;41.740;-88.000;2022-12-18T08:43:05;98935.65;;;-7.93;54.52
45991;BME280;31721;41.740;-88.000;2022-12-18T08:45:34;98936.06;;;-7.84;54.32
45991;BME280;31721;41.740;-88.000;2022-12-18T08:48:01;98936.98;;;-7.98;54.49
45991;BME280;31721;41.740;-88.000;2022-12-18T08:50:30;98935.69;;;-7.92;54.59
45991;BME280;31721;41.740;-88.000;2022-12-18T08:52:57;98934.19;;;-8.26;54.65
45991;BME280;31721;41.740;-88.000;2022-12-18T08:55:25;98936.78;;;-8.31;54.90
45991;BME280;31721;41.740;-88.000;2022-12-18T08:57:53;98945.43;;;-8.22;54.66
45991;BME280;31721;41.740;-88.000;2022-12-18T09:00:21;98951.62;;;-8.78;55.48
45991;BME280;31721;41.740;-88.000;2022-12-18T09:02:49;98951.04;;;-8.08;54.58
45991;BME280;31721;41.740;-88.000;2022-12-18T09:05:16;98958.32;;;-8.05;54.92
45991;BME280;31721;41.740;-88.000;2022-12-18T09:07:44;98955.55;;;-8.19;54.86
45991;BME280;31721;41.740;-88.000;2022-12-18T09:10:12;98951.77;;;-8.13;54.82
45991;BME280;31721;41.740;-88.000;2022-12-18T09:12:40;98955.32;;;-8.17;54.69
45991;BME280;31721;41.740;-88.000;2022-12-18T09:15:09;98958.26;;;-8.10;54.86
45991;BME280;31721;41.740;-88.000;2022-12-18T09:17:37;98965.57;;;-8.02;54.85
45991;BME280;31721;41.740;-88.000;2022-12-18T09:20:06;98967.74;;;-8.04;54.64
45991;BME280;31721;41.740;-88.000;2022-12-18T09:22:34;98964.03;;;-8.14;55.05
45991;BME280;31721;41.740;-88.000;2022-12-18T09:25:02;98968.78;;;-8.14;55.02
45991;BME280;31721;41.740;-88.000;2022-12-18T09:27:30;98968.98;;;-8.16;55.22
45991;BME280;31721;41.740;-88.000;2022-12-18T09:29:58;98968.77;;;-8.05;55.31
45991;BME280;31721;41.740;-88.000;2022-12-18T09:32:26;98968.98;;;-7.97;55.14
45991;BME280;31721;41.740;-88.000;2022-12-18T09:34:53;98960.94;;;-7.79;54.89
45991;BME280;31721;41.740;-88.000;2022-12-18T09:37:21;98968.62;;;-7.74;54.40
45991;BME280;31721;41.740;-88.000;2022-12-18T09:39:49;98983.27;;;-7.97;55.09
45991;BME280;31721;41.740;-88.000;2022-12-18T09:42:21;98980.08;;;-7.87;54.68
45991;BME280;31721;41.740;-88.000;2022-12-18T09:44:50;98981.54;;;-8.13;54.81
45991;BME280;31721;41.740;-88.000;2022-12-18T09:47:21;98988.26;;;-8.09;54.65
45991;BME280;31721;41.740;-88.000;2022-12-18T09:49:54;98988.01;;;-7.69;54.16
45991;BME280;31721;41.740;-88.000;2022-12-18T09:52:26;98992.74;;;-7.75;54.41
45991;BME280;31721;41.740;-88.000;2022-12-18T09:55:00;98991.81;;;-8.19;55.02
45991;BME280;31721;41.740;-88.000;2022-12-18T09:57:32;98995.32;;;-8.22;54.83
45991;BME280;31721;41.740;-88.000;2022-12-18T10:00:06;99005.50;;;-8.51;54.62
45991;BME280;31721;41.740;-88.000;2022-12-18T10:02:36;99012.44;;;-8.48;54.93
45991;BME280;31721;41.740;-88.000;2022-12-18T10:05:07;99007.48;;;-8.28;55.00
45991;BME280;31721;41.740;-88.000;2022-12-18T10:07:48;99005.93;;;-8.32;54.89
45991;BME280;31721;41.740;-88.000;2022-12-18T10:10:25;99005.94;;;-8.44;54.95
45991;BME280;31721;41.740;-88.000;2022-12-18T10:12:59;99001.74;;;-7.89;54.36
45991;BME280;31721;41.740;-88.000;2022-12-18T10:15:36;99008.85;;;-8.46;54.94
45991;BME280;31721;41.740;-88.000;2022-12-18T10:18:18;99017.54;;;-8.61;54.36
45991;BME280;31721;41.740;-88.000;2022-12-18T10:20:52;99013.67;;;-8.72;55.30
45991;BME280;31721;41.740;-88.000;2022-12-18T10:23:24;99022.69;;;-8.45;55.10
45991;BME280;31721;41.740;-88.000;2022-12-18T10:25:58;99019.44;;;-8.08;54.26
45991;BME280;31721;41.740;-88.000;2022-12-18T10:28:30;99032.46;;;-8.03;54.37
45991;BME280;31721;41.740;-88.000;2022-12-18T10:30:58;99040.94;;;-8.44;54.66
45991;BME280;31721;41.740;-88.000;2022-12-18T10:33:30;99042.46;;;-8.07;54.24
45991;BME280;31721;41.740;-88.000;2022-12-18T10:35:59;99048.71;;;-8.06;54.61
45991;BME280;31721;41.740;-88.000;2022-12-18T10:38:28;99048.31;;;-8.11;54.28
45991;BME280;31721;41.740;-88.000;2022-12-18T10:40:59;99055.61;;;-8.24;54.48
45991;BME280;31721;41.740;-88.000;2022-12-18T10:43:29;99052.15;;;-8.55;54.76
45991;BME280;31721;41.740;-88.000;2022-12-18T10:46:02;99062.38;;;-8.23;54.49
45991;BME280;31721;41.740;-88.000;2022-12-18T10:48:33;99061.63;;;-8.06;54.29
45991;BME280;31721;41.740;-88.000;2022-12-18T10:51:01;99063.66;;;-8.11;54.29
45991;BME280;31721;41.740;-88.000;2022-12-18T10:53:31;99059.41;;;-8.31;54.52
45991;BME280;31721;41.740;-88.000;2022-12-18T10:56:00;99061.16;;;-8.59;54.89
45991;BME280;31721;41.740;-88.000;2022-12-18T10:58:31;99065.89;;;-8.36;54.48
45991;BME280;31721;41.740;-88.000;2022-12-18T11:01:06;99069.81;;;-8.37;54.73
45991;BME280;31721;41.740;-88.000;2022-12-18T11:03:37;99071.09;;;-8.67;54.97
45991;BME280;31721;41.740;-88.000;2022-12-18T11:06:08;99065.75;;;-9.00;55.05
45991;BME280;31721;41.740;-88.000;2022-12-18T11:08:36;99068.05;;;-8.47;54.93
45991;BME280;31721;41.740;-88.000;2022-12-18T11:11:09;99063.83;;;-8.53;54.96
45991;BME280;31721;41.740;-88.000;2022-12-18T11:13:51;99065.12;;;-8.87;55.34
45991;BME280;31721;41.740;-88.000;2022-12-18T11:16:22;99074.51;;;-8.62;55.12
45991;BME280;31721;41.740;-88.000;2022-12-18T11:18:50;99072.41;;;-8.52;55.33
45991;BME280;31721;41.740;-88.000;2022-12-18T11:21:18;99072.46;;;-8.66;55.52
45991;BME280;31721;41.740;-88.000;2022-12-18T11:23:49;99077.81;;;-8.81;55.53
45991;BME280;31721;41.740;-88.000;2022-12-18T11:26:18;99084.80;;;-8.87;55.61
45991;BME280;31721;41.740;-88.000;2022-12-18T11:28:49;99087.98;;;-8.57;55.41
45991;BME280;31721;41.740;-88.000;2022-12-18T11:31:21;99092.35;;;-8.70;55.86
45991;BME280;31721;41.740;-88.000;2022-12-18T11:33:57;99089.79;;;-8.92;55.90
45991;BME280;31721;41.740;-88.000;2022-12-18T11:36:29;99092.58;;;-8.79;55.82
45991;BME280;31721;41.740;-88.000;2022-12-18T11:39:03;99103.07;;;-8.83;56.08
45991;BME280;31721;41.740;-88.000;2022-12-18T11:41:37;99106.05;;;-8.89;56.61
45991;BME280;31721;41.740;-88.000;2022-12-18T11:44:10;99107.32;;;-9.31;56.68
45991;BME280;31721;41.740;-88.000;2022-12-18T11:46:46;99108.70;;;-8.98;56.57
45991;BME280;31721;41.740;-88.000;2022-12-18T11:49:22;99108.67;;;-8.92;56.25
45991;BME280;31721;41.740;-88.000;2022-12-18T11:51:55;99116.90;;;-9.07;56.38
45991;BME280;31721;41.740;-88.000;2022-12-18T11:54:26;99119.96;;;-9.37;56.41
45991;BME280;31721;41.740;-88.000;2022-12-18T11:56:58;99117.80;;;-9.46;56.37
45991;BME280;31721;41.740;-88.000;2022-12-18T11:59:35;99115.04;;;-9.31;56.33
45991;BME280;31721;41.740;-88.000;2022-12-18T12:02:20;99122.20;;;-9.07;56.22
45991;BME280;31721;41.740;-88.000;2022-12-18T12:05:05;99124.85;;;-9.09;56.22
45991;BME280;31721;41.740;-88.000;2022-12-18T12:07:48;99135.00;;;-9.45;56.30
45991;BME280;31721;41.740;-88.000;2022-12-18T12:10:31;99134.00;;;-8.77;55.61
45991;BME280;31721;41.740;-88.000;2022-12-18T12:13:17;99138.69;;;-8.95;55.59
45991;BME280;31721;41.740;-88.000;2022-12-18T12:15:57;99140.52;;;-9.13;55.73
45991;BME280;31721;41.740;-88.000;2022-12-18T12:18:36;99139.65;;;-9.09;55.39
45991;BME280;31721;41.740;-88.000;2022-12-18T12:21:16;99139.32;;;-9.18;55.62
45991;BME280;31721;41.740;-88.000;2022-12-18T12:23:55;99136.92;;;-9.15;55.49
45991;BME280;31721;41.740;-88.000;2022-12-18T12:26:30;99143.66;;;-9.19;55.59
45991;BME280;31721;41.740;-88.000;2022-12-18T12:29:13;99148.45;;;-9.24;55.70
45991;BME280;31721;41.740;-88.000;2022-12-18T12:31:55;99155.21;;;-9.00;55.32
45991;BME280;31721;41.740;-88.000;2022-12-18T12:34:29;99162.81;;;-9.15;55.21
45991;BME280;31721;41.740;-88.000;2022-12-18T12:37:11;99163.67;;;-9.41;55.62
45991;BME280;31721;41.740;-88.000;2022-12-18T12:39:43;99167.11;;;-9.21;55.96
45991;BME280;31721;41.740;-88.000;2022-12-18T12:42:16;99176.35;;;-8.77;54.64
45991;BME280;31721;41.740;-88.000;2022-12-18T12:44:50;99180.75;;;-9.05;55.19
45991;BME280;31721;41.740;-88.000;2022-12-18T12:47:23;99184.75;;;-8.87;54.56
45991;BME280;31721;41.740;-88.000;2022-12-18T12:49:54;99191.21;;;-8.92;54.65
45991;BME280;31721;41.740;-88.000;2022-12-18T12:52:29;99189.63;;;-8.82;54.28
45991;BME280;31721;41.740;-88.000;2022-12-18T12:54:59;99194.84;;;-9.06;54.48
45991;BME280;31721;41.740;-88.000;2022-12-18T12:57:33;99197.45;;;-9.23;54.80